KRFD/RFD METAR and TAF weather

Enter ICAO airport designator
Station Type Date Time Source
KRFD METAR 2022/01/26 19:54 UTC NOAA

KRFD 261954Z 19009KT 10SM FEW250 M15/M22 A3039 RMK AO2 SLP310 T11501217


Station Type Date Time Source
KRFD Decoded METAR 2022/01/26 19:54 UTC NOAA

GREATER ROCKFORD AIRPORT, IL, United States (KRFD) 42-12N 89-06W 221M
Jan 26, 2022 - 02:54 PM EST / 2022.01.26 1954 UTC
Wind: from the S (190 degrees) at 10 MPH (9 KT):0
Visibility: 10 mile(s):0
Sky conditions: mostly clear
Temperature: 5.0 F (-15.0 C)
Windchill: -9 F (-23 C):2
Dew Point: -7.1 F (-21.7 C)
Relative Humidity: 56%
Pressure (altimeter): 30.39 in. Hg (1029 hPa)
ob: KRFD 261954Z 19009KT 10SM FEW250 M15/M22 A3039 RMK AO2 SLP310 T11501217
cycle: 20

Station Type Date Time Source
KRFD TAF 2022/01/26 18:24 UTC NOAA

TAF KRFD 261720Z 2618/2718 20010KT P6SM SKC
FM270300 19012G20KT P6SM SCT250
FM270600 20012G20KT P6SM SCT040 BKN100 WS020/24045KT
FM271600 24012G18KT P6SM BKN030

Example: see airport list